Strona główna
METAR-TAF:

METAR-TAF

Lotnisko :

Angola, Indiana, Stany Zjednoczone

Szerokość geograficzna: 41-38-23N, Długość geograficzna: 085-05-01W, wysokość: 303 m

Aktualna obserwacja pogody

Raport powstał 16 minut temu, godzina 22:55 UTC
Wiatr 8 kt od południowy wschód w porywach dochodzący do 18 kt
Temperatura -4°C
Wilgotność 74%
Ciśnienie 1035 hPa
Widzialność: 16.1 km
Zachmurzenie całkowite na wysokości 11000 ft

METAR: KANQ 172255Z AUTO 13008G18KT 10SM OVC110 M04/M08 A3056 RMK AO2

czas: 18:11 (23:11 UTC)


TAF: brakujący

Obserwacja i prognoza pogody dla ponad 4000 lotnisk (raport METAR i TAF).

Dostępne stacje oznaczono żółtymi i czerwonymi punktami na mapie.

Najedź kursorem aby zobaczyć nazwę stacji.

Kliknij aby zobaczyć obserwacje i prognozy pogody.

Aby zmienić mapę: kliknij na zielony przycisk z czarnym krzyżykiem, aby powiększyć; na zielony przycisk z myślnikiem, aby pomniejszyć; na zielone strzałki, aby przejść do map sąsiednich.


METAR-TAF: